Terminal Aerodrome Forecast
Issued by NWS Pendleton, OR

Home | Current Version | Previous Version | Text Only | Print | Product List | Glossary On
Versions: 1 2 3 4 5 6 7 8 9 10 11 12 13 14 15
000
FTUS46 KPDT 191700
TAFPDT
TAF
KPDT 191736Z 1918/2018 30012KT P6SM SCT120 SCT180
     FM191900 29015G25KT P6SM BKN100
     FM192300 27022G32KT P6SM BKN070
     FM200200 27015G25KT P6SM SCT070
     FM200600 23011KT P6SM SKC=

USA.gov is the U.S. government's official web portal to all federal, state and local government web resources and services.